createdAt,value
2022-10-20T00:01:21.758Z,57.70
2022-10-20T00:03:48.228Z,57.60
2022-10-20T00:06:14.694Z,57.70
2022-10-20T00:08:41.225Z,57.80
2022-10-20T00:11:07.746Z,57.70
2022-10-20T00:13:34.231Z,57.70
2022-10-20T00:16:00.699Z,57.70
2022-10-20T00:18:27.176Z,57.70
2022-10-20T00:20:53.649Z,57.50
2022-10-20T00:23:20.124Z,57.60
2022-10-20T00:25:46.584Z,57.50
2022-10-20T00:28:13.048Z,57.50
2022-10-20T00:30:39.536Z,57.50
2022-10-20T00:33:06.031Z,57.50
2022-10-20T00:35:32.518Z,57.60
2022-10-20T00:37:58.982Z,57.50
2022-10-20T00:40:25.448Z,57.40
2022-10-20T00:42:51.916Z,57.40
2022-10-20T00:45:18.396Z,57.40
2022-10-20T00:50:12.265Z,57.30
2022-10-20T00:52:38.822Z,57.30
2022-10-20T00:55:05.315Z,58.10
2022-10-20T00:57:31.798Z,57.40
2022-10-20T00:59:58.272Z,57.20
2022-10-20T01:02:24.727Z,57.20
2022-10-20T01:04:51.189Z,57.20
2022-10-20T01:07:17.669Z,57.10
2022-10-20T01:09:44.119Z,57.10
2022-10-20T01:12:10.596Z,57.20
2022-10-20T01:14:37.051Z,57.30
2022-10-20T01:17:03.560Z,57.20
2022-10-20T01:19:30.018Z,57.10
2022-10-20T01:21:56.494Z,57.10
2022-10-20T01:24:23.014Z,57.10
2022-10-20T01:26:49.544Z,57.10
2022-10-20T01:29:16.008Z,57.10
2022-10-20T01:31:42.482Z,57.10
2022-10-20T01:34:08.962Z,57.80
2022-10-20T01:36:35.446Z,57.20
2022-10-20T01:39:01.950Z,57.00
2022-10-20T01:41:28.428Z,57.10
2022-10-20T01:43:54.904Z,57.00
2022-10-20T01:46:21.383Z,57.10
2022-10-20T01:48:47.864Z,57.10
2022-10-20T01:51:14.353Z,57.00
2022-10-20T01:53:40.835Z,57.00
2022-10-20T01:56:07.310Z,57.00
2022-10-20T01:58:33.800Z,57.00
2022-10-20T02:01:00.287Z,56.90
2022-10-20T02:03:26.779Z,57.00
2022-10-20T02:05:53.257Z,56.90
2022-10-20T02:08:19.743Z,56.90
2022-10-20T02:10:46.198Z,56.90
2022-10-20T02:13:12.680Z,56.80
2022-10-20T02:15:39.146Z,56.90
2022-10-20T02:18:05.634Z,56.90
2022-10-20T02:20:32.103Z,56.90
2022-10-20T02:22:58.575Z,56.80
2022-10-20T02:25:25.043Z,56.90
2022-10-20T02:27:51.575Z,57.00
2022-10-20T02:30:18.219Z,56.70
2022-10-20T02:32:44.683Z,56.80
2022-10-20T02:35:11.149Z,56.80
2022-10-20T02:37:37.938Z,57.10
2022-10-20T02:40:04.680Z,56.90
2022-10-20T02:42:31.168Z,56.80
2022-10-20T02:44:57.627Z,56.70
2022-10-20T02:47:24.092Z,56.80
2022-10-20T02:49:50.568Z,56.80
2022-10-20T02:52:17.056Z,56.70
2022-10-20T02:54:43.537Z,56.60
2022-10-20T02:57:10.008Z,56.70
2022-10-20T02:59:36.490Z,56.60
2022-10-20T03:02:03.026Z,56.60
2022-10-20T03:04:29.530Z,56.60
2022-10-20T03:06:55.999Z,56.60
2022-10-20T03:09:22.466Z,56.60
2022-10-20T03:11:48.937Z,56.60
2022-10-20T03:14:15.405Z,56.60
2022-10-20T03:16:41.896Z,56.50
2022-10-20T03:19:11.594Z,56.70
2022-10-20T03:21:38.409Z,56.60
2022-10-20T03:24:04.889Z,56.50
2022-10-20T03:26:31.350Z,56.40
2022-10-20T03:28:57.823Z,56.40
2022-10-20T03:31:24.326Z,56.50
2022-10-20T03:33:50.784Z,56.50
2022-10-20T03:36:17.254Z,56.50
2022-10-20T03:38:43.729Z,56.50
2022-10-20T03:41:10.217Z,56.50
2022-10-20T03:43:36.703Z,56.40
2022-10-20T03:46:03.161Z,56.40
2022-10-20T03:48:29.631Z,56.50
2022-10-20T03:50:56.109Z,56.50
2022-10-20T03:53:22.582Z,56.50
2022-10-20T03:55:49.066Z,56.40
2022-10-20T03:58:15.548Z,56.40
2022-10-20T04:00:42.045Z,57.10
2022-10-20T04:03:08.520Z,56.40
2022-10-20T04:05:34.983Z,56.30
2022-10-20T04:08:01.504Z,56.30
2022-10-20T04:10:27.983Z,56.40
2022-10-20T04:12:54.444Z,57.00
2022-10-20T04:15:20.898Z,56.30
2022-10-20T04:17:47.374Z,56.30
2022-10-20T04:20:13.859Z,56.40
2022-10-20T04:22:40.339Z,56.40
2022-10-20T04:25:06.843Z,56.30
2022-10-20T04:27:33.552Z,56.20
2022-10-20T04:30:00.128Z,56.20
2022-10-20T04:32:26.599Z,56.30
2022-10-20T04:34:53.090Z,56.30
2022-10-20T04:37:19.554Z,56.20
2022-10-20T04:39:46.011Z,56.20
2022-10-20T04:42:12.476Z,56.20
2022-10-20T04:44:38.957Z,56.20
2022-10-20T04:47:05.437Z,56.20
2022-10-20T04:49:31.913Z,56.30
2022-10-20T04:52:01.015Z,56.10
2022-10-20T04:54:27.839Z,56.20
2022-10-20T04:56:54.325Z,56.20
2022-10-20T04:59:20.797Z,56.20
2022-10-20T05:01:47.311Z,56.10
2022-10-20T05:04:13.794Z,56.10
2022-10-20T05:06:40.266Z,56.10
2022-10-20T05:09:06.809Z,56.20
2022-10-20T05:11:33.363Z,56.10
2022-10-20T05:13:59.856Z,56.10
2022-10-20T05:16:26.339Z,56.20
2022-10-20T05:18:52.824Z,56.10
2022-10-20T05:21:19.302Z,56.10
2022-10-20T05:23:45.778Z,56.10
2022-10-20T05:26:12.241Z,56.10
2022-10-20T05:28:38.734Z,56.10
2022-10-20T05:31:05.210Z,56.10
2022-10-20T05:33:31.683Z,56.00
2022-10-20T05:35:58.141Z,56.00
2022-10-20T05:38:24.619Z,56.00
2022-10-20T05:40:51.078Z,56.00
2022-10-20T05:43:17.564Z,56.00
2022-10-20T05:45:44.045Z,55.90
2022-10-20T05:48:10.549Z,56.00
2022-10-20T05:50:37.047Z,55.90
2022-10-20T05:53:03.564Z,55.90
2022-10-20T05:55:30.045Z,55.80
2022-10-20T05:57:56.527Z,55.90
2022-10-20T06:00:23.016Z,56.00
2022-10-20T06:02:49.531Z,56.00
2022-10-20T06:05:16.007Z,56.00
2022-10-20T06:07:42.512Z,55.90
2022-10-20T06:10:08.977Z,55.90
2022-10-20T06:12:35.588Z,56.00
2022-10-20T06:15:02.183Z,56.00
2022-10-20T06:17:28.667Z,55.90
2022-10-20T06:19:55.127Z,55.80
2022-10-20T06:22:21.633Z,55.90
2022-10-20T06:24:48.100Z,55.90
2022-10-20T06:27:14.606Z,55.90
2022-10-20T06:29:41.072Z,55.80
2022-10-20T06:32:07.572Z,55.70
2022-10-20T06:34:34.068Z,56.00
2022-10-20T06:37:00.566Z,55.90
2022-10-20T06:39:27.036Z,55.80
2022-10-20T06:41:53.527Z,55.80
2022-10-20T06:44:19.978Z,55.90
2022-10-20T06:46:46.462Z,55.90
2022-10-20T06:49:12.938Z,55.60
2022-10-20T06:51:39.454Z,55.80
2022-10-20T06:54:05.940Z,55.80
2022-10-20T06:56:32.424Z,55.80
2022-10-20T06:58:58.886Z,55.90
2022-10-20T07:01:25.445Z,55.80
2022-10-20T07:03:51.989Z,55.70
2022-10-20T07:06:18.473Z,55.70
2022-10-20T07:08:45.016Z,56.40
2022-10-20T07:11:11.490Z,55.80
2022-10-20T07:13:37.979Z,55.70
2022-10-20T07:16:04.444Z,55.70
2022-10-20T07:18:30.952Z,55.70
2022-10-20T07:20:57.446Z,55.80
2022-10-20T07:23:23.935Z,55.80
2022-10-20T07:25:50.406Z,55.70
2022-10-20T07:28:16.898Z,55.70
2022-10-20T07:30:43.365Z,55.70
2022-10-20T07:33:09.948Z,55.60
2022-10-20T07:35:36.413Z,55.60
2022-10-20T07:38:03.017Z,55.60
2022-10-20T07:40:29.500Z,55.60
2022-10-20T07:42:55.979Z,55.60
2022-10-20T07:45:22.450Z,55.60
2022-10-20T07:47:48.922Z,55.80
2022-10-20T07:50:15.401Z,55.70
2022-10-20T07:52:41.887Z,55.70
2022-10-20T07:55:17.664Z,55.60
2022-10-20T07:57:54.813Z,55.60
2022-10-20T08:00:21.285Z,55.60
2022-10-20T08:02:47.758Z,55.70
2022-10-20T08:05:14.227Z,55.70
2022-10-20T08:07:40.692Z,55.60
2022-10-20T08:10:07.164Z,55.70
2022-10-20T08:12:33.783Z,56.40
2022-10-20T08:15:00.586Z,55.80
2022-10-20T08:17:27.099Z,55.70
2022-10-20T08:20:01.237Z,55.70
2022-10-20T08:22:27.746Z,55.70
2022-10-20T08:24:54.213Z,55.70
2022-10-20T08:27:20.690Z,55.60
2022-10-20T08:29:54.993Z,55.70
2022-10-20T08:32:26.944Z,55.90
2022-10-20T08:34:53.426Z,55.90
2022-10-20T08:37:19.923Z,55.90
2022-10-20T08:39:46.407Z,55.90
2022-10-20T08:42:12.902Z,55.90
2022-10-20T08:44:39.395Z,55.90
2022-10-20T08:47:05.863Z,55.90
2022-10-20T08:49:32.345Z,55.90
2022-10-20T08:51:58.811Z,55.90
2022-10-20T08:54:25.276Z,55.90
2022-10-20T08:56:51.776Z,56.00
2022-10-20T08:59:18.240Z,55.90
2022-10-20T09:01:44.766Z,56.00
2022-10-20T09:04:11.286Z,56.10
2022-10-20T09:06:37.777Z,56.00
2022-10-20T09:09:04.305Z,56.30
2022-10-20T09:11:30.877Z,56.20
2022-10-20T09:13:57.353Z,56.40
2022-10-20T09:16:34.983Z,56.50
2022-10-20T09:19:08.897Z,56.50
2022-10-20T09:21:35.428Z,56.60
2022-10-20T09:24:01.893Z,56.60
2022-10-20T09:26:39.088Z,56.70
2022-10-20T09:29:14.178Z,56.60
2022-10-20T09:31:41.240Z,57.10
2022-10-20T09:34:07.717Z,57.20
2022-10-20T09:36:34.210Z,57.40
2022-10-20T09:39:00.677Z,57.30
2022-10-20T09:41:27.143Z,57.20
2022-10-20T09:43:57.145Z,57.20
2022-10-20T09:46:24.618Z,57.30
2022-10-20T09:48:51.096Z,57.50
2022-10-20T09:51:17.562Z,57.50
2022-10-20T09:53:44.022Z,57.60
2022-10-20T09:56:14.060Z,57.70
2022-10-20T09:58:40.568Z,57.50
2022-10-20T10:01:07.085Z,57.50
2022-10-20T10:03:33.631Z,57.50
2022-10-20T10:06:00.113Z,57.60
2022-10-20T10:08:26.611Z,57.70
2022-10-20T10:10:53.068Z,57.60
2022-10-20T10:13:21.188Z,57.70
2022-10-20T10:15:50.451Z,57.60
2022-10-20T10:18:16.934Z,57.70
2022-10-20T10:20:43.390Z,57.70
2022-10-20T10:23:09.869Z,57.80
2022-10-20T10:25:36.349Z,57.70
2022-10-20T10:28:08.070Z,57.80
2022-10-20T10:30:34.553Z,58.00
2022-10-20T10:33:01.038Z,58.00
2022-10-20T10:35:27.516Z,57.90
2022-10-20T10:37:54.003Z,57.90
2022-10-20T10:40:20.476Z,57.90
2022-10-20T10:42:46.962Z,57.90
2022-10-20T10:45:13.423Z,57.90
2022-10-20T10:47:40.576Z,58.10
2022-10-20T10:50:07.192Z,58.00
2022-10-20T10:52:33.678Z,58.10
2022-10-20T10:55:00.158Z,58.10
2022-10-20T10:57:26.647Z,58.20
2022-10-20T10:59:53.110Z,58.20
2022-10-20T11:02:19.593Z,58.20
2022-10-20T11:04:46.055Z,58.20
2022-10-20T11:07:12.525Z,58.40
2022-10-20T11:09:39.017Z,58.20
2022-10-20T11:12:05.491Z,58.30
2022-10-20T11:14:31.953Z,58.30
2022-10-20T11:16:58.438Z,58.50
2022-10-20T11:19:24.916Z,58.50
2022-10-20T11:21:51.413Z,58.60
2022-10-20T11:24:17.894Z,58.50
2022-10-20T11:26:44.385Z,58.50
2022-10-20T11:29:10.875Z,58.80
2022-10-20T11:31:37.362Z,58.70
2022-10-20T11:34:03.818Z,58.70
2022-10-20T11:36:30.300Z,58.70
2022-10-20T11:38:56.751Z,58.60
2022-10-20T11:41:23.232Z,58.90
2022-10-20T11:43:49.710Z,58.90
2022-10-20T11:46:16.199Z,59.00
2022-10-20T11:48:42.675Z,59.00
2022-10-20T11:51:09.164Z,59.00
2022-10-20T11:53:35.633Z,59.00
2022-10-20T11:56:02.111Z,59.00
2022-10-20T11:58:28.598Z,58.90
2022-10-20T12:00:57.579Z,58.90
2022-10-20T12:03:26.111Z,59.00
2022-10-20T12:05:52.577Z,59.00
2022-10-20T12:08:29.503Z,59.00
2022-10-20T12:10:56.609Z,59.00
2022-10-20T12:13:23.092Z,59.70
2022-10-20T12:15:49.568Z,59.00
2022-10-20T12:18:16.058Z,59.20
2022-10-20T12:20:42.578Z,59.20
2022-10-20T12:23:09.110Z,59.20
2022-10-20T12:25:35.586Z,59.30
2022-10-20T12:28:02.068Z,59.40
2022-10-20T12:30:28.545Z,59.40
2022-10-20T12:32:55.027Z,59.60
2022-10-20T12:35:21.493Z,59.70
2022-10-20T12:37:48.366Z,59.60
2022-10-20T12:40:15.047Z,59.50
2022-10-20T12:42:41.512Z,59.60
2022-10-20T12:45:07.968Z,59.80
2022-10-20T12:47:34.782Z,59.70
2022-10-20T12:50:01.547Z,59.60
2022-10-20T12:52:28.020Z,59.80
2022-10-20T12:54:54.502Z,60.00
2022-10-20T12:57:20.991Z,59.80
2022-10-20T12:59:47.470Z,59.70
2022-10-20T13:02:13.948Z,59.60
2022-10-20T13:04:43.206Z,59.70
2022-10-20T13:07:11.875Z,59.60
2022-10-20T13:09:38.353Z,59.60
2022-10-20T13:12:04.824Z,59.60
2022-10-20T13:14:31.307Z,59.60
2022-10-20T13:16:57.773Z,59.70
2022-10-20T13:19:24.249Z,59.80
2022-10-20T13:21:50.723Z,59.80
2022-10-20T13:24:17.207Z,59.90
2022-10-20T13:26:43.682Z,59.90
2022-10-20T13:29:10.165Z,59.80
2022-10-20T13:31:36.673Z,59.80
2022-10-20T13:34:04.927Z,59.80
2022-10-20T13:36:32.085Z,59.90
2022-10-20T13:39:02.243Z,59.90
2022-10-20T13:41:28.744Z,60.00
2022-10-20T13:43:57.751Z,60.00
2022-10-20T13:46:25.324Z,60.00
2022-10-20T13:48:51.792Z,60.20
2022-10-20T13:51:20.509Z,60.20
2022-10-20T13:53:47.479Z,60.20
2022-10-20T13:56:13.974Z,61.10
2022-10-20T13:58:40.440Z,60.20
2022-10-20T14:01:06.996Z,60.40
2022-10-20T14:03:33.525Z,60.30
2022-10-20T14:05:59.993Z,60.50
2022-10-20T14:08:26.479Z,60.50
2022-10-20T14:10:53.013Z,60.70
2022-10-20T14:13:19.476Z,61.00
2022-10-20T14:15:45.939Z,60.80
2022-10-20T14:18:12.405Z,60.80
2022-10-20T14:20:38.876Z,61.00
2022-10-20T14:23:05.363Z,61.00
2022-10-20T14:25:31.826Z,61.20
2022-10-20T14:27:58.305Z,61.40
2022-10-20T14:30:24.773Z,61.20
2022-10-20T14:32:51.271Z,61.50
2022-10-20T14:35:17.736Z,61.40
2022-10-20T14:37:44.211Z,61.30
2022-10-20T14:40:10.677Z,61.30
2022-10-20T14:42:37.135Z,61.50
2022-10-20T14:45:03.595Z,61.40
2022-10-20T14:47:30.071Z,61.30
2022-10-20T14:49:56.555Z,61.20
2022-10-20T14:52:23.039Z,61.40
2022-10-20T14:54:49.527Z,61.20
2022-10-20T14:57:16.006Z,61.40
2022-10-20T14:59:42.473Z,61.50
2022-10-20T15:02:08.946Z,61.70
2022-10-20T15:04:36.410Z,61.60
2022-10-20T15:07:03.072Z,61.60
2022-10-20T15:09:29.555Z,61.50
2022-10-20T15:11:56.026Z,61.30
2022-10-20T15:14:26.319Z,61.40
2022-10-20T15:16:52.795Z,61.30
2022-10-20T15:19:19.260Z,61.40
2022-10-20T15:21:45.751Z,61.20
2022-10-20T15:24:12.231Z,61.40
2022-10-20T15:26:38.704Z,61.40
2022-10-20T15:29:05.164Z,61.60
2022-10-20T15:31:31.677Z,61.70
2022-10-20T15:33:58.171Z,61.60
2022-10-20T15:36:24.725Z,61.80
2022-10-20T15:38:51.204Z,61.70
2022-10-20T15:41:17.703Z,61.60
2022-10-20T15:43:44.165Z,61.70
2022-10-20T15:46:10.624Z,61.80
2022-10-20T15:48:37.106Z,61.70
2022-10-20T15:51:03.589Z,61.70
2022-10-20T15:53:30.063Z,62.00
2022-10-20T15:55:56.520Z,61.70
2022-10-20T15:58:23.008Z,61.70
2022-10-20T16:00:49.533Z,61.60
2022-10-20T16:03:16.046Z,62.00
2022-10-20T16:05:42.521Z,62.00
2022-10-20T16:08:09.051Z,61.80
2022-10-20T16:10:35.585Z,61.90
2022-10-20T16:13:02.060Z,62.00
2022-10-20T16:15:30.434Z,62.00
2022-10-20T16:17:57.682Z,61.80
2022-10-20T16:20:24.145Z,62.00
2022-10-20T16:22:50.621Z,62.00
2022-10-20T16:25:17.087Z,61.80
2022-10-20T16:27:43.575Z,62.00
2022-10-20T16:30:10.059Z,61.90
2022-10-20T16:32:36.775Z,61.90
2022-10-20T16:35:03.543Z,61.80
2022-10-20T16:37:30.009Z,62.00
2022-10-20T16:39:56.485Z,61.90
2022-10-20T16:42:22.951Z,61.80
2022-10-20T16:44:49.438Z,62.20
2022-10-20T16:47:15.919Z,62.00
2022-10-20T16:49:42.393Z,62.10
2022-10-20T16:52:08.859Z,62.20
2022-10-20T16:54:35.367Z,62.10
2022-10-20T16:57:01.908Z,62.10
2022-10-20T16:59:28.379Z,61.80
2022-10-20T17:01:54.866Z,62.10
2022-10-20T17:04:21.331Z,61.80
2022-10-20T17:06:47.825Z,62.00
2022-10-20T17:09:14.283Z,62.00
2022-10-20T17:11:40.752Z,62.00
2022-10-20T17:14:07.229Z,62.90
2022-10-20T17:16:33.736Z,62.20
2022-10-20T17:19:00.219Z,62.00
2022-10-20T17:21:26.715Z,62.10
2022-10-20T17:23:53.177Z,62.00
2022-10-20T17:26:19.661Z,62.20
2022-10-20T17:28:46.125Z,62.20
2022-10-20T17:31:12.652Z,62.30
2022-10-20T17:33:39.159Z,62.10
2022-10-20T17:36:05.638Z,62.30
2022-10-20T17:38:32.208Z,62.30
2022-10-20T17:40:58.671Z,62.30
2022-10-20T17:43:25.147Z,62.20
2022-10-20T17:45:51.620Z,62.00
2022-10-20T17:48:18.111Z,62.30
2022-10-20T17:50:44.573Z,62.40
2022-10-20T17:53:11.243Z,62.40
2022-10-20T17:55:37.700Z,62.40
2022-10-20T17:58:05.940Z,63.10
2022-10-20T18:00:54.902Z,62.40
2022-10-20T18:03:19.013Z,62.50
2022-10-20T18:05:45.484Z,62.70
2022-10-20T18:08:11.960Z,62.70
2022-10-20T18:10:41.439Z,62.70
2022-10-20T18:13:10.118Z,62.50
2022-10-20T18:15:36.603Z,62.70
2022-10-20T18:18:03.033Z,62.70
2022-10-20T18:20:32.259Z,62.60
2022-10-20T18:23:00.843Z,62.60
2022-10-20T18:25:27.297Z,62.40
2022-10-20T18:27:53.756Z,62.50
2022-10-20T18:30:20.222Z,62.50
2022-10-20T18:32:46.697Z,62.70
2022-10-20T18:35:13.285Z,62.60
2022-10-20T18:37:40.147Z,62.60
2022-10-20T18:40:06.765Z,62.30
2022-10-20T18:42:33.250Z,62.60
2022-10-20T18:44:59.731Z,62.50
2022-10-20T18:47:26.202Z,62.60
2022-10-20T18:49:52.678Z,62.60
2022-10-20T18:52:19.152Z,62.70
2022-10-20T18:54:45.628Z,62.60
2022-10-20T18:57:12.108Z,62.40
2022-10-20T18:59:38.608Z,62.50
2022-10-20T19:02:05.090Z,62.70
2022-10-20T19:04:31.550Z,62.90
2022-10-20T19:06:58.011Z,62.90
2022-10-20T19:09:24.467Z,62.70
2022-10-20T19:14:22.313Z,62.70
2022-10-20T19:16:48.796Z,62.70
2022-10-20T19:19:15.268Z,62.90
2022-10-20T19:21:41.754Z,62.90
2022-10-20T19:24:08.213Z,62.90
2022-10-20T19:26:34.685Z,62.90
2022-10-20T19:29:01.170Z,62.90
2022-10-20T19:31:27.662Z,62.60
2022-10-20T19:33:54.127Z,62.90
2022-10-20T19:36:20.616Z,63.90
2022-10-20T19:38:47.084Z,63.00
2022-10-20T19:41:13.581Z,63.20
2022-10-20T19:43:40.051Z,63.20
2022-10-20T19:46:06.525Z,63.20
2022-10-20T19:48:32.991Z,63.20
2022-10-20T19:50:59.467Z,63.00
2022-10-20T19:53:25.955Z,63.10
2022-10-20T19:55:52.434Z,63.70
2022-10-20T19:58:19.198Z,62.90
2022-10-20T20:00:45.717Z,62.90
2022-10-20T20:03:12.231Z,62.90
2022-10-20T20:05:38.714Z,63.00
2022-10-20T20:08:05.200Z,63.10
2022-10-20T20:10:31.676Z,63.20
2022-10-20T20:12:58.166Z,63.10
2022-10-20T20:15:24.644Z,63.20
2022-10-20T20:17:51.125Z,63.10
2022-10-20T20:20:17.599Z,63.10
2022-10-20T20:22:44.064Z,63.20
2022-10-20T20:25:10.528Z,63.30
2022-10-20T20:27:37.251Z,63.40
2022-10-20T20:30:03.941Z,63.40
2022-10-20T20:32:30.419Z,63.30
2022-10-20T20:34:56.930Z,63.50
2022-10-20T20:37:23.408Z,63.40
2022-10-20T20:39:49.888Z,64.40
2022-10-20T20:42:16.362Z,63.60
2022-10-20T20:44:42.821Z,63.60
2022-10-20T20:47:09.297Z,63.60
2022-10-20T20:49:35.768Z,63.80
2022-10-20T20:52:02.249Z,64.00
2022-10-20T20:54:32.230Z,63.90
2022-10-20T20:56:59.592Z,63.90
2022-10-20T20:59:26.024Z,63.90
2022-10-20T21:01:52.495Z,63.90
2022-10-20T21:04:18.972Z,64.10
2022-10-20T21:07:02.484Z,64.20
2022-10-20T21:09:29.316Z,64.30
2022-10-20T21:11:55.814Z,64.20
2022-10-20T21:14:22.291Z,64.30
2022-10-20T21:16:48.767Z,64.30
2022-10-20T21:19:15.231Z,64.40
2022-10-20T21:21:41.703Z,64.10
2022-10-20T21:24:08.170Z,64.10
2022-10-20T21:26:34.668Z,64.00
2022-10-20T21:29:01.145Z,64.30
2022-10-20T21:31:27.632Z,64.30
2022-10-20T21:33:54.105Z,64.00
2022-10-20T21:36:20.598Z,64.30
2022-10-20T21:38:47.077Z,64.30
2022-10-20T21:41:13.540Z,64.30
2022-10-20T21:43:40.019Z,64.50
2022-10-20T21:46:06.490Z,64.50
2022-10-20T21:48:33.007Z,64.40
2022-10-20T21:50:59.510Z,64.50
2022-10-20T21:53:25.984Z,64.40
2022-10-20T21:55:52.462Z,65.50
2022-10-20T21:58:18.933Z,64.60
2022-10-20T22:00:45.451Z,64.70
2022-10-20T22:03:12.287Z,64.70
2022-10-20T22:05:38.759Z,64.80
2022-10-20T22:08:05.228Z,64.60
2022-10-20T22:10:31.696Z,64.80
2022-10-20T22:12:58.173Z,64.60
2022-10-20T22:15:24.641Z,64.70
2022-10-20T22:17:51.123Z,64.60
2022-10-20T22:20:17.583Z,64.70
2022-10-20T22:22:44.067Z,64.60
2022-10-20T22:25:10.546Z,64.50
2022-10-20T22:27:42.340Z,64.90
2022-10-20T22:30:09.142Z,64.70
2022-10-20T22:32:35.929Z,64.50
2022-10-20T22:35:02.528Z,64.80
2022-10-20T22:37:29.010Z,64.50
2022-10-20T22:39:55.495Z,65.70
2022-10-20T22:42:24.121Z,64.80
2022-10-20T22:44:51.454Z,64.80
2022-10-20T22:47:17.928Z,64.90
2022-10-20T22:49:44.398Z,64.80
2022-10-20T22:52:10.870Z,64.90
2022-10-20T22:54:37.328Z,64.90
2022-10-20T22:57:03.795Z,65.00
2022-10-20T22:59:30.247Z,64.80
2022-10-20T23:01:56.720Z,65.00
2022-10-20T23:04:23.198Z,64.90
2022-10-20T23:06:49.704Z,64.80
2022-10-20T23:09:16.331Z,64.90
2022-10-20T23:11:42.866Z,64.80
2022-10-20T23:14:09.349Z,65.00
2022-10-20T23:16:35.844Z,65.20
2022-10-20T23:19:02.313Z,65.00
2022-10-20T23:21:28.824Z,64.90
2022-10-20T23:23:55.404Z,65.00
2022-10-20T23:26:21.902Z,65.00
2022-10-20T23:28:48.374Z,65.10
2022-10-20T23:31:14.885Z,65.10
2022-10-20T23:33:41.342Z,65.20
2022-10-20T23:36:07.806Z,65.90
2022-10-20T23:38:34.267Z,65.20
2022-10-20T23:41:00.747Z,65.30
2022-10-20T23:43:27.255Z,65.20
2022-10-20T23:45:53.769Z,65.00
2022-10-20T23:48:20.249Z,65.20
2022-10-20T23:50:46.732Z,65.20
2022-10-20T23:53:13.194Z,65.20
2022-10-20T23:55:39.670Z,65.30
2022-10-20T23:58:06.136Z,65.20
